createdAt,value
2022-10-18T00:00:06.372Z,17.83
2022-10-18T00:02:33.118Z,16.50
2022-10-18T00:04:59.783Z,17.45
2022-10-18T00:07:26.396Z,17.63
2022-10-18T00:09:53.037Z,13.60
2022-10-18T00:12:19.764Z,17.23
2022-10-18T00:14:49.725Z,15.27
2022-10-18T00:17:16.409Z,15.48
2022-10-18T00:19:43.023Z,11.07
2022-10-18T00:22:09.653Z,11.13
2022-10-18T00:24:36.255Z,26.40
2022-10-18T00:27:02.883Z,13.02
2022-10-18T00:29:29.438Z,16.38
2022-10-18T00:31:56.107Z,18.17
2022-10-18T00:34:22.719Z,15.40
2022-10-18T00:36:49.315Z,22.63
2022-10-18T00:39:18.482Z,20.10
2022-10-18T00:41:46.167Z,14.23
2022-10-18T00:44:12.723Z,13.43
2022-10-18T00:46:42.497Z,17.17
2022-10-18T00:49:16.167Z,17.70
2022-10-18T00:51:45.044Z,22.85
2022-10-18T00:54:13.587Z,21.52
2022-10-18T00:56:40.470Z,20.98
2022-10-18T00:59:08.038Z,23.60
2022-10-18T01:01:34.678Z,15.77
2022-10-18T01:04:01.460Z,19.25
2022-10-18T01:06:29.397Z,19.63
2022-10-18T01:09:18.502Z,20.77
2022-10-18T01:11:54.112Z,21.60
2022-10-18T01:14:30.476Z,22.40
2022-10-18T01:17:08.775Z,26.90
2022-10-18T01:20:03.430Z,27.17
2022-10-18T01:22:35.654Z,27.27
2022-10-18T01:25:14.305Z,23.85
2022-10-18T01:28:18.441Z,24.45
2022-10-18T01:31:00.226Z,22.95
2022-10-18T01:33:38.684Z,28.92
2022-10-18T01:36:37.304Z,25.58
2022-10-18T01:39:16.365Z,22.50
2022-10-18T01:41:45.668Z,33.13
2022-10-18T01:44:19.611Z,28.75
2022-10-18T01:46:47.205Z,23.30
2022-10-18T01:49:14.415Z,26.77
2022-10-18T01:51:41.057Z,30.33
2022-10-18T01:54:08.839Z,25.10
2022-10-18T01:56:38.533Z,22.58
2022-10-18T01:59:24.903Z,23.67
2022-10-18T02:02:14.716Z,27.48
2022-10-18T02:04:50.353Z,32.92
2022-10-18T02:07:28.227Z,30.10
2022-10-18T02:12:44.493Z,29.20
2022-10-18T02:15:16.685Z,28.90
2022-10-18T02:17:45.402Z,22.30
2022-10-18T02:20:16.095Z,28.38
2022-10-18T02:22:46.037Z,24.38
2022-10-18T02:25:21.469Z,30.15
2022-10-18T02:27:48.279Z,25.15
2022-10-18T02:30:15.820Z,25.00
2022-10-18T02:32:58.992Z,30.30
2022-10-18T02:35:31.440Z,31.13
2022-10-18T02:37:59.239Z,24.05
2022-10-18T02:40:26.753Z,26.45
2022-10-18T02:42:58.308Z,33.28
2022-10-18T02:45:26.406Z,30.50
2022-10-18T02:47:53.363Z,31.25
2022-10-18T02:50:19.977Z,25.85
2022-10-18T02:52:46.632Z,27.15
2022-10-18T02:55:13.338Z,29.33
2022-10-18T02:57:40.005Z,27.33
2022-10-18T03:00:07.279Z,25.05
2022-10-18T03:02:34.253Z,20.03
2022-10-18T03:05:00.988Z,27.75
2022-10-18T03:07:27.736Z,30.40
2022-10-18T03:09:54.343Z,27.10
2022-10-18T03:12:20.910Z,25.00
2022-10-18T03:14:47.525Z,33.92
2022-10-18T03:17:14.306Z,26.15
2022-10-18T03:19:40.948Z,23.38
2022-10-18T03:22:07.698Z,25.95
2022-10-18T03:24:34.279Z,25.60
2022-10-18T03:27:00.889Z,28.20
2022-10-18T03:29:27.543Z,25.58
2022-10-18T03:31:54.171Z,26.67
2022-10-18T03:34:20.769Z,27.15
2022-10-18T03:36:47.409Z,33.88
2022-10-18T03:39:14.189Z,26.48
2022-10-18T03:41:40.827Z,25.88
2022-10-18T03:44:07.609Z,34.40
2022-10-18T03:46:34.201Z,31.80
2022-10-18T03:49:00.809Z,25.63
2022-10-18T03:51:27.488Z,27.38
2022-10-18T03:53:54.072Z,34.00
2022-10-18T03:56:20.633Z,31.95
2022-10-18T03:58:47.293Z,29.30
2022-10-18T04:01:13.930Z,27.08
2022-10-18T04:03:40.624Z,32.00
2022-10-18T04:06:08.272Z,33.90
2022-10-18T04:08:34.894Z,30.60
2022-10-18T04:11:08.390Z,24.70
2022-10-18T04:13:35.662Z,37.25
2022-10-18T04:16:02.289Z,31.03
2022-10-18T04:18:29.321Z,34.45
2022-10-18T04:20:55.902Z,28.58
2022-10-18T04:23:22.560Z,34.20
2022-10-18T04:25:49.176Z,41.58
2022-10-18T04:28:15.798Z,27.05
2022-10-18T04:30:42.540Z,33.75
2022-10-18T04:33:09.145Z,33.85
2022-10-18T04:35:35.713Z,29.92
2022-10-18T04:38:02.304Z,28.27
2022-10-18T04:40:28.908Z,29.90
2022-10-18T04:42:56.028Z,35.80
2022-10-18T04:45:22.641Z,34.50
2022-10-18T04:47:49.278Z,37.28
2022-10-18T04:50:16.033Z,25.98
2022-10-18T04:52:42.653Z,30.23
2022-10-18T04:55:09.638Z,29.83
2022-10-18T04:57:36.325Z,32.45
2022-10-18T05:00:03.853Z,38.63
2022-10-18T05:02:31.050Z,27.65
2022-10-18T05:04:57.983Z,28.08
2022-10-18T05:07:24.569Z,29.42
2022-10-18T05:09:51.221Z,38.45
2022-10-18T05:12:17.875Z,26.58
2022-10-18T05:14:44.509Z,32.90
2022-10-18T05:17:11.191Z,33.60
2022-10-18T05:19:37.834Z,32.28
2022-10-18T05:22:04.459Z,32.95
2022-10-18T05:24:31.171Z,32.88
2022-10-18T05:26:58.332Z,51.03
2022-10-18T05:29:25.243Z,37.47
2022-10-18T05:31:52.194Z,31.35
2022-10-18T05:34:20.683Z,39.08
2022-10-18T05:36:49.531Z,35.22
2022-10-18T05:39:16.152Z,41.58
2022-10-18T05:41:42.820Z,42.50
2022-10-18T05:44:09.739Z,34.97
2022-10-18T05:46:36.456Z,40.95
2022-10-18T05:49:03.130Z,32.10
2022-10-18T05:51:29.768Z,40.22
2022-10-18T05:53:56.422Z,29.05
2022-10-18T05:56:23.173Z,40.78
2022-10-18T05:58:52.035Z,26.80
2022-10-18T06:01:18.876Z,29.48
2022-10-18T06:03:45.529Z,33.05
2022-10-18T06:06:13.375Z,29.77
2022-10-18T06:08:41.627Z,31.05
2022-10-18T06:13:41.058Z,35.03
2022-10-18T06:16:08.310Z,29.23
2022-10-18T06:18:34.982Z,28.87
2022-10-18T06:21:01.720Z,30.85
2022-10-18T06:23:28.818Z,36.13
2022-10-18T06:26:13.580Z,25.52
2022-10-18T06:28:40.255Z,30.40
2022-10-18T06:31:07.012Z,30.95
2022-10-18T06:33:35.498Z,29.17
2022-10-18T06:36:08.385Z,35.78
2022-10-18T06:38:35.842Z,35.45
2022-10-18T06:41:03.660Z,20.00
2022-10-18T06:43:30.320Z,17.10
2022-10-18T06:45:57.227Z,22.95
2022-10-18T06:48:24.651Z,19.92
2022-10-18T06:50:59.953Z,22.13
2022-10-18T06:53:29.146Z,25.85
2022-10-18T06:56:03.886Z,28.92
2022-10-18T06:58:31.568Z,24.45
2022-10-18T07:00:58.887Z,22.45
2022-10-18T07:03:26.404Z,25.83
2022-10-18T07:05:53.307Z,25.45
2022-10-18T07:08:19.951Z,22.75
2022-10-18T07:10:53.602Z,28.63
2022-10-18T07:13:32.083Z,19.90
2022-10-18T07:16:18.391Z,20.55
2022-10-18T07:18:52.626Z,18.48
2022-10-18T07:21:20.940Z,20.98
2022-10-18T07:26:38.614Z,15.73
2022-10-18T07:29:11.129Z,21.50
2022-10-18T07:31:41.161Z,21.58
2022-10-18T07:34:11.692Z,20.50
2022-10-18T07:36:38.967Z,20.75
2022-10-18T07:39:05.642Z,29.00
2022-10-18T07:41:33.998Z,24.77
2022-10-18T07:44:01.481Z,21.77
2022-10-18T07:46:28.206Z,24.52
2022-10-18T07:48:54.920Z,40.13
2022-10-18T07:51:22.203Z,26.30
2022-10-18T07:53:49.079Z,21.07
2022-10-18T07:56:20.793Z,21.13
2022-10-18T07:58:52.610Z,19.83
2022-10-18T08:01:20.569Z,20.80
2022-10-18T08:03:47.270Z,15.35
2022-10-18T08:06:16.737Z,23.30
2022-10-18T08:08:44.313Z,20.65
2022-10-18T08:11:15.070Z,20.65
2022-10-18T08:13:42.605Z,14.68
2022-10-18T08:16:12.349Z,17.80
2022-10-18T08:18:39.085Z,14.32
2022-10-18T08:21:08.231Z,22.77
2022-10-18T08:23:35.071Z,13.02
2022-10-18T08:26:03.681Z,12.02
2022-10-18T08:28:30.551Z,10.57
2022-10-18T08:30:57.339Z,11.80
2022-10-18T08:33:24.042Z,9.60
2022-10-18T08:35:58.599Z,11.35
2022-10-18T08:38:25.788Z,11.23
2022-10-18T08:40:52.717Z,29.73
2022-10-18T08:44:00.200Z,15.35
2022-10-18T08:46:29.166Z,6.93
2022-10-18T08:48:57.030Z,10.93
2022-10-18T08:51:34.521Z,4.65
2022-10-18T08:54:11.066Z,12.35
2022-10-18T08:56:40.951Z,7.75
2022-10-18T08:59:12.027Z,10.93
2022-10-18T09:01:57.051Z,6.78
2022-10-18T09:04:54.553Z,28.13
2022-10-18T09:07:51.787Z,9.50
2022-10-18T09:10:36.806Z,10.07
2022-10-18T09:13:27.733Z,12.95
2022-10-18T09:15:59.944Z,5.65
2022-10-18T09:18:41.813Z,11.00
2022-10-18T09:21:38.297Z,7.47
2022-10-18T09:24:22.123Z,10.05
2022-10-18T09:26:54.492Z,6.55
2022-10-18T09:29:41.114Z,6.38
2022-10-18T09:32:26.557Z,3.58
2022-10-18T09:35:06.383Z,5.55
2022-10-18T09:37:35.021Z,6.10
2022-10-18T09:40:16.597Z,5.15
2022-10-18T09:42:55.895Z,7.50
2022-10-18T09:45:25.470Z,6.18
2022-10-18T09:48:04.867Z,7.03
2022-10-18T09:51:00.897Z,4.45
2022-10-18T09:53:44.998Z,12.25
2022-10-18T09:56:18.336Z,5.15
2022-10-18T09:58:47.661Z,4.38
2022-10-18T10:01:23.061Z,6.18
2022-10-18T10:03:50.027Z,9.70
2022-10-18T10:06:28.972Z,8.18
2022-10-18T10:11:38.279Z,6.68
2022-10-18T10:14:19.632Z,6.50
2022-10-18T10:16:51.847Z,15.73
2022-10-18T10:19:24.283Z,4.50
2022-10-18T10:21:55.809Z,7.38
2022-10-18T10:25:00.720Z,10.57
2022-10-18T10:27:43.665Z,14.57
2022-10-18T10:30:32.168Z,7.50
2022-10-18T10:32:59.129Z,6.85
2022-10-18T10:35:48.999Z,15.20
2022-10-18T10:38:25.717Z,11.10
2022-10-18T10:40:52.521Z,7.10
2022-10-18T10:43:40.458Z,13.48
2022-10-18T10:46:13.426Z,7.32
2022-10-18T10:49:04.462Z,12.48
2022-10-18T10:51:41.447Z,6.53
2022-10-18T10:54:21.986Z,6.90
2022-10-18T10:57:04.965Z,7.43
2022-10-18T10:59:49.275Z,7.30
2022-10-18T11:02:17.769Z,4.57
2022-10-18T11:04:55.611Z,9.27
2022-10-18T11:07:35.779Z,6.88
2022-10-18T11:10:11.728Z,10.30
2022-10-18T11:12:43.165Z,5.95
2022-10-18T11:15:36.057Z,8.68
2022-10-18T11:18:05.611Z,6.82
2022-10-18T11:20:43.368Z,12.57
2022-10-18T11:23:17.607Z,7.65
2022-10-18T11:26:07.564Z,8.18
2022-10-18T11:28:43.128Z,6.50
2022-10-18T11:31:30.133Z,7.82
2022-10-18T11:34:24.645Z,6.20
2022-10-18T11:37:34.534Z,4.80
2022-10-18T11:40:20.224Z,5.15
2022-10-18T11:42:59.146Z,9.02
2022-10-18T11:45:34.748Z,4.57
2022-10-18T11:48:22.683Z,6.35
2022-10-18T11:51:01.600Z,13.32
2022-10-18T11:54:14.623Z,10.40
2022-10-18T11:56:43.941Z,9.93
2022-10-18T11:59:32.783Z,7.53
2022-10-18T12:02:36.385Z,9.13
2022-10-18T12:05:22.683Z,11.63
2022-10-18T12:07:58.814Z,7.03
2022-10-18T12:10:39.280Z,6.65
2022-10-18T12:13:23.081Z,5.65
2022-10-18T12:15:51.539Z,9.75
2022-10-18T12:18:23.458Z,7.47
2022-10-18T12:20:54.565Z,4.72
2022-10-18T12:23:30.192Z,8.85
2022-10-18T12:26:04.048Z,6.43
2022-10-18T12:28:55.620Z,4.57
2022-10-18T12:31:28.084Z,9.68
2022-10-18T12:34:09.759Z,4.65
2022-10-18T12:36:59.706Z,9.30
2022-10-18T12:39:43.679Z,4.30
2022-10-18T12:42:23.998Z,2.13
2022-10-18T12:45:03.674Z,6.57
2022-10-18T12:47:31.360Z,10.20
2022-10-18T12:50:01.486Z,8.73
2022-10-18T12:52:30.481Z,6.50
2022-10-18T12:55:18.387Z,3.40
2022-10-18T12:57:54.185Z,9.85
2022-10-18T13:00:29.518Z,8.93
2022-10-18T13:03:16.592Z,4.63
2022-10-18T13:05:54.986Z,4.13
2022-10-18T13:11:12.929Z,3.83
2022-10-18T13:13:51.623Z,8.82
2022-10-18T13:16:39.481Z,3.78
2022-10-18T13:19:25.039Z,4.88
2022-10-18T13:22:32.901Z,7.20
2022-10-18T13:25:19.399Z,5.97
2022-10-18T13:28:00.363Z,3.60
2022-10-18T13:30:45.485Z,5.15
2022-10-18T13:33:33.029Z,4.93
2022-10-18T13:36:04.681Z,8.07
2022-10-18T13:38:43.094Z,6.30
2022-10-18T13:41:31.332Z,9.98
2022-10-18T13:44:25.064Z,5.38
2022-10-18T13:46:51.671Z,7.00
2022-10-18T13:49:38.581Z,8.00
2022-10-18T13:52:27.089Z,8.80
2022-10-18T13:55:14.858Z,5.50
2022-10-18T13:57:47.484Z,8.27
2022-10-18T14:00:32.485Z,3.60
2022-10-18T14:03:02.274Z,10.13
2022-10-18T14:05:52.137Z,6.53
2022-10-18T14:11:04.130Z,7.68
2022-10-18T14:13:52.530Z,7.47
2022-10-18T14:16:32.056Z,5.32
2022-10-18T14:19:09.126Z,4.80
2022-10-18T14:21:41.616Z,4.85
2022-10-18T14:24:20.016Z,3.20
2022-10-18T14:26:46.878Z,5.95
2022-10-18T14:29:19.675Z,7.95
2022-10-18T14:31:53.500Z,5.45
2022-10-18T14:34:20.826Z,4.70
2022-10-18T14:36:49.614Z,4.50
2022-10-18T14:39:27.474Z,6.70
2022-10-18T14:41:56.006Z,2.97
2022-10-18T14:44:32.655Z,8.48
2022-10-18T14:47:14.746Z,7.28
2022-10-18T14:49:46.402Z,4.30
2022-10-18T14:52:17.177Z,9.80
2022-10-18T14:54:44.346Z,5.57
2022-10-18T14:57:23.609Z,4.60
2022-10-18T14:59:58.251Z,5.30
2022-10-18T15:02:27.531Z,11.48
2022-10-18T15:04:59.809Z,9.10
2022-10-18T15:07:31.153Z,10.88
2022-10-18T15:10:00.828Z,11.43
2022-10-18T15:12:36.886Z,8.32
2022-10-18T15:15:18.569Z,13.63
2022-10-18T15:17:47.016Z,8.45
2022-10-18T15:20:25.340Z,3.63
2022-10-18T15:22:53.595Z,7.32
2022-10-18T15:28:00.411Z,7.72
2022-10-18T15:33:10.287Z,10.05
2022-10-18T15:35:39.195Z,8.77
2022-10-18T15:38:24.440Z,10.50
2022-10-18T15:40:51.514Z,8.35
2022-10-18T15:43:24.323Z,8.07
2022-10-18T15:46:03.249Z,10.63
2022-10-18T15:48:32.908Z,10.05
2022-10-18T15:51:04.948Z,11.00
2022-10-18T15:53:34.950Z,13.25
2022-10-18T15:56:04.591Z,9.25
2022-10-18T15:58:44.026Z,8.25
2022-10-18T16:01:17.384Z,5.75
2022-10-18T16:03:46.241Z,10.00
2022-10-18T16:06:17.380Z,5.35
2022-10-18T16:08:52.946Z,4.65
2022-10-18T16:11:24.889Z,10.73
2022-10-18T16:13:55.173Z,5.82
2022-10-18T16:16:27.136Z,7.43
2022-10-18T16:18:54.435Z,7.10
2022-10-18T16:21:27.079Z,7.10
2022-10-18T16:23:54.251Z,8.05
2022-10-18T16:26:22.231Z,9.93
2022-10-18T16:28:49.741Z,26.25
2022-10-18T16:31:22.374Z,16.35
2022-10-18T16:33:50.120Z,15.73
2022-10-18T16:36:18.873Z,15.50
2022-10-18T16:38:46.353Z,14.68
2022-10-18T16:41:14.711Z,15.23
2022-10-18T16:43:43.200Z,19.15
2022-10-18T16:46:17.507Z,15.85
2022-10-18T16:48:44.490Z,28.48
2022-10-18T16:51:12.101Z,16.30
2022-10-18T16:53:38.986Z,14.80
2022-10-18T16:56:11.892Z,11.93
2022-10-18T16:58:38.577Z,16.13
2022-10-18T17:01:08.115Z,16.17
2022-10-18T17:03:35.800Z,18.92
2022-10-18T17:06:02.498Z,12.68
2022-10-18T17:08:29.555Z,12.75
2022-10-18T17:10:58.280Z,8.40
2022-10-18T17:13:26.603Z,7.88
2022-10-18T17:15:53.578Z,11.70
2022-10-18T17:18:23.593Z,13.23
2022-10-18T17:20:50.586Z,9.43
2022-10-18T17:23:17.358Z,9.82
2022-10-18T17:25:57.552Z,10.05
2022-10-18T17:28:31.785Z,9.52
2022-10-18T17:30:58.467Z,15.35
2022-10-18T17:33:25.183Z,8.38
2022-10-18T17:35:52.069Z,11.20
2022-10-18T17:38:18.750Z,13.02
2022-10-18T17:40:45.423Z,12.65
2022-10-18T17:43:13.754Z,12.82
2022-10-18T17:45:54.146Z,13.48
2022-10-18T17:48:21.401Z,11.43
2022-10-18T17:50:48.012Z,6.68
2022-10-18T17:53:14.777Z,10.15
2022-10-18T17:55:41.479Z,6.15
2022-10-18T17:58:08.397Z,10.18
2022-10-18T18:00:35.332Z,11.95
2022-10-18T18:03:02.506Z,8.20
2022-10-18T18:05:33.886Z,12.25
2022-10-18T18:08:03.864Z,6.65
2022-10-18T18:10:33.466Z,12.63
2022-10-18T18:13:00.665Z,8.10
2022-10-18T18:15:27.419Z,8.60
2022-10-18T18:17:57.858Z,7.95
2022-10-18T18:20:26.311Z,10.52
2022-10-18T18:22:53.412Z,11.13
2022-10-18T18:25:20.158Z,21.23
2022-10-18T18:27:47.444Z,9.88
2022-10-18T18:30:15.516Z,10.17
2022-10-18T18:32:42.202Z,13.85
2022-10-18T18:35:08.871Z,9.65
2022-10-18T18:37:35.536Z,5.80
2022-10-18T18:40:02.193Z,14.82
2022-10-18T18:42:28.865Z,9.23
2022-10-18T18:44:55.487Z,10.23
2022-10-18T18:47:23.642Z,13.35
2022-10-18T18:52:18.312Z,15.50
2022-10-18T18:54:45.149Z,13.30
2022-10-18T18:57:11.767Z,10.15
2022-10-18T18:59:38.454Z,32.47
2022-10-18T19:02:05.133Z,11.43
2022-10-18T19:04:31.809Z,13.07
2022-10-18T19:06:58.450Z,26.80
2022-10-18T19:09:27.232Z,57.60
2022-10-18T19:11:56.278Z,41.78
2022-10-18T19:14:25.013Z,25.25
2022-10-18T19:17:01.705Z,17.35
2022-10-18T19:19:30.076Z,16.73
2022-10-18T19:22:02.171Z,14.18
2022-10-18T19:24:32.634Z,16.90
2022-10-18T19:27:02.477Z,17.45
2022-10-18T19:29:32.450Z,16.27
2022-10-18T19:32:01.560Z,26.75
2022-10-18T19:34:30.037Z,25.45
2022-10-18T19:36:57.153Z,30.33
2022-10-18T19:39:29.909Z,30.50
2022-10-18T19:41:58.491Z,27.55
2022-10-18T19:44:28.725Z,21.13
2022-10-18T19:46:55.607Z,9.85
2022-10-18T19:49:22.307Z,11.38
2022-10-18T19:51:49.367Z,19.13
2022-10-18T19:54:16.647Z,17.73
2022-10-18T19:56:43.680Z,11.18
2022-10-18T19:59:11.474Z,9.52
2022-10-18T20:01:38.636Z,9.88
2022-10-18T20:04:06.594Z,12.85
2022-10-18T20:06:34.039Z,11.35
2022-10-18T20:09:01.358Z,11.98
2022-10-18T20:11:29.120Z,14.30
2022-10-18T20:13:56.742Z,14.02
2022-10-18T20:16:28.373Z,16.27
2022-10-18T20:19:04.115Z,14.13
2022-10-18T20:21:33.131Z,11.48
2022-10-18T20:23:59.790Z,6.72
2022-10-18T20:26:26.548Z,16.02
2022-10-18T20:28:58.840Z,15.98
2022-10-18T20:31:30.522Z,15.95
2022-10-18T20:33:59.755Z,9.30
2022-10-18T20:36:27.714Z,14.82
2022-10-18T20:38:55.039Z,13.10
2022-10-18T20:41:42.102Z,17.87
2022-10-18T20:44:13.518Z,14.43
2022-10-18T20:46:40.940Z,18.73
2022-10-18T20:49:10.450Z,19.95
2022-10-18T20:51:37.106Z,19.45
2022-10-18T20:54:07.009Z,24.73
2022-10-18T20:56:35.483Z,33.80
2022-10-18T20:59:03.165Z,13.77
2022-10-18T21:01:32.021Z,15.52
2022-10-18T21:04:01.276Z,15.73
2022-10-18T21:06:46.457Z,21.85
2022-10-18T21:09:15.831Z,11.80
2022-10-18T21:11:45.441Z,10.05
2022-10-18T21:14:20.573Z,10.90
2022-10-18T21:16:48.007Z,16.50
2022-10-18T21:19:16.225Z,10.95
2022-10-18T21:24:11.442Z,20.40
2022-10-18T21:26:38.618Z,10.90
2022-10-18T21:29:06.637Z,11.68
2022-10-18T21:31:36.427Z,11.20
2022-10-18T21:34:06.421Z,14.43
2022-10-18T21:36:37.149Z,11.95
2022-10-18T21:39:06.254Z,13.02
2022-10-18T21:41:32.924Z,10.38
2022-10-18T21:44:00.096Z,19.63
2022-10-18T21:46:27.146Z,10.25
2022-10-18T21:48:55.677Z,13.27
2022-10-18T21:51:24.754Z,31.10
2022-10-18T21:53:53.973Z,11.30
2022-10-18T21:56:31.940Z,14.80
2022-10-18T21:58:59.429Z,10.23
2022-10-18T22:01:27.346Z,10.10
2022-10-18T22:03:55.992Z,13.52
2022-10-18T22:06:23.456Z,10.38
2022-10-18T22:08:56.113Z,10.93
2022-10-18T22:11:25.933Z,14.98
2022-10-18T22:13:53.393Z,14.80
2022-10-18T22:16:20.550Z,18.95
2022-10-18T22:18:49.499Z,14.55
2022-10-18T22:21:18.022Z,22.98
2022-10-18T22:23:50.297Z,14.45
2022-10-18T22:26:18.263Z,18.67
2022-10-18T22:28:46.081Z,21.40
2022-10-18T22:31:24.479Z,16.80
2022-10-18T22:33:58.974Z,20.65
2022-10-18T22:36:26.480Z,16.73
2022-10-18T22:38:53.426Z,17.77
2022-10-18T22:41:20.107Z,15.70
2022-10-18T22:43:47.826Z,15.98
2022-10-18T22:46:15.287Z,14.88
2022-10-18T22:48:42.973Z,14.88
2022-10-18T22:51:10.232Z,27.65
2022-10-18T22:53:37.856Z,17.40
2022-10-18T22:56:05.347Z,13.85
2022-10-18T22:58:32.202Z,10.20
2022-10-18T23:01:03.000Z,13.25
2022-10-18T23:03:30.204Z,15.13
2022-10-18T23:05:58.117Z,17.73
2022-10-18T23:08:25.058Z,18.08
2022-10-18T23:10:58.945Z,16.30
2022-10-18T23:13:29.235Z,19.48
2022-10-18T23:16:04.380Z,23.45
2022-10-18T23:18:32.337Z,13.43
2022-10-18T23:21:07.721Z,21.70
2022-10-18T23:23:35.982Z,14.45
2022-10-18T23:28:36.711Z,19.90
2022-10-18T23:31:08.422Z,18.65
2022-10-18T23:33:35.325Z,24.10
2022-10-18T23:36:01.992Z,14.43
2022-10-18T23:38:30.559Z,17.38
2022-10-18T23:40:57.895Z,23.60
2022-10-18T23:43:24.674Z,12.63
2022-10-18T23:45:51.592Z,23.42
2022-10-18T23:48:18.196Z,17.67
2022-10-18T23:50:44.953Z,23.67
2022-10-18T23:53:11.561Z,17.98
2022-10-18T23:55:38.217Z,20.63
2022-10-18T23:58:04.867Z,22.73
